McNair, Texas
Current Conditions -  °F | °C
As of 6:50 AM on Friday 24 Oct 2014 (Local Time) from KEFD Reporting Station
Clear Clear  
Wind Chill: 59°   Ceiling: Unl
Heat Index: 59°   Visibility: 10mi
Dew Point: 55°   Wind: 5mph
Humidity: 88%   Direction: 10°N
Pressure: 30.14"   Gusts: NA
Location:  29.7803°N, 94.894°W
Report Text: KEFD 241150Z 01004KT 10SM CLR 15/13 A3014
Loading
Personal Weather Stations






























Interactive Weather Map
Tropical Storm Tracking
New forecast layout! Learn more

10-Day Weather Forecast

Advertisements
Track Severe Weather on mobile